sensor_id;sensor_type;location;lat;lon;timestamp;temperature;humidity
15452;DHT22;7827;53.594;9.938;2023-05-07T00:00:20;9.40;99.90
15452;DHT22;7827;53.594;9.938;2023-05-07T00:02:49;9.50;99.90
15452;DHT22;7827;53.594;9.938;2023-05-07T00:05:18;9.40;99.90
15452;DHT22;7827;53.594;9.938;2023-05-07T00:07:48;9.50;99.90
15452;DHT22;7827;53.594;9.938;2023-05-07T00:10:17;9.50;99.90
15452;DHT22;7827;53.594;9.938;2023-05-07T00:12:45;9.50;99.90
15452;DHT22;7827;53.594;9.938;2023-05-07T00:15:13;9.50;97.20
15452;DHT22;7827;53.594;9.938;2023-05-07T00:17:41;9.50;99.90
15452;DHT22;7827;53.594;9.938;2023-05-07T00:20:11;9.50;99.10
15452;DHT22;7827;53.594;9.938;2023-05-07T00:22:39;9.50;95.80
15452;DHT22;7827;53.594;9.938;2023-05-07T00:25:09;9.60;93.00
15452;DHT22;7827;53.594;9.938;2023-05-07T00:27:38;9.60;90.40
15452;DHT22;7827;53.594;9.938;2023-05-07T00:30:07;9.60;58.20
15452;DHT22;7827;53.594;9.938;2023-05-07T00:32:36;9.50;72.50
15452;DHT22;7827;53.594;9.938;2023-05-07T00:35:06;9.60;92.90
15452;DHT22;7827;53.594;9.938;2023-05-07T00:37:35;9.60;83.10
15452;DHT22;7827;53.594;9.938;2023-05-07T00:40:05;9.60;76.40
15452;DHT22;7827;53.594;9.938;2023-05-07T00:42:37;9.60;91.10
15452;DHT22;7827;53.594;9.938;2023-05-07T00:45:07;9.60;77.30
15452;DHT22;7827;53.594;9.938;2023-05-07T00:47:36;9.60;82.50
15452;DHT22;7827;53.594;9.938;2023-05-07T00:50:05;9.60;90.90
15452;DHT22;7827;53.594;9.938;2023-05-07T00:52:35;9.60;83.70
15452;DHT22;7827;53.594;9.938;2023-05-07T00:55:06;9.60;74.50
15452;DHT22;7827;53.594;9.938;2023-05-07T00:57:39;9.60;88.20
15452;DHT22;7827;53.594;9.938;2023-05-07T01:00:09;9.60;65.20
15452;DHT22;7827;53.594;9.938;2023-05-07T01:02:40;9.60;91.00
15452;DHT22;7827;53.594;9.938;2023-05-07T01:05:11;9.60;71.00
15452;DHT22;7827;53.594;9.938;2023-05-07T01:07:42;9.50;73.70
15452;DHT22;7827;53.594;9.938;2023-05-07T01:10:11;9.60;84.10
15452;DHT22;7827;53.594;9.938;2023-05-07T01:12:42;9.60;66.50
15452;DHT22;7827;53.594;9.938;2023-05-07T01:15:12;9.70;67.50
15452;DHT22;7827;53.594;9.938;2023-05-07T01:17:42;9.70;52.00
15452;DHT22;7827;53.594;9.938;2023-05-07T01:20:20;9.70;47.30
15452;DHT22;7827;53.594;9.938;2023-05-07T01:22:53;9.60;43.20
15452;DHT22;7827;53.594;9.938;2023-05-07T01:25:22;9.60;33.00
15452;DHT22;7827;53.594;9.938;2023-05-07T01:27:55;9.60;57.10
15452;DHT22;7827;53.594;9.938;2023-05-07T01:30:28;9.60;33.30
15452;DHT22;7827;53.594;9.938;2023-05-07T01:33:02;9.60;18.90
15452;DHT22;7827;53.594;9.938;2023-05-07T01:35:38;9.60;15.20
15452;DHT22;7827;53.594;9.938;2023-05-07T01:38:11;9.60;3.60
15452;DHT22;7827;53.594;9.938;2023-05-07T01:40:40;9.50;22.20
15452;DHT22;7827;53.594;9.938;2023-05-07T01:43:10;9.50;12.20
15452;DHT22;7827;53.594;9.938;2023-05-07T01:45:40;9.60;1.00
15452;DHT22;7827;53.594;9.938;2023-05-07T01:48:10;9.60;7.40
15452;DHT22;7827;53.594;9.938;2023-05-07T01:50:39;9.60;1.00
15452;DHT22;7827;53.594;9.938;2023-05-07T01:53:10;9.60;1.00
15452;DHT22;7827;53.594;9.938;2023-05-07T01:55:39;9.50;1.00
15452;DHT22;7827;53.594;9.938;2023-05-07T01:58:07;9.50;1.00
15452;DHT22;7827;53.594;9.938;2023-05-07T02:00:36;9.50;1.00
15452;DHT22;7827;53.594;9.938;2023-05-07T02:03:05;9.50;1.00
15452;DHT22;7827;53.594;9.938;2023-05-07T02:05:41;9.50;1.00
15452;DHT22;7827;53.594;9.938;2023-05-07T02:08:18;9.50;1.00
15452;DHT22;7827;53.594;9.938;2023-05-07T02:10:46;9.50;1.00
15452;DHT22;7827;53.594;9.938;2023-05-07T02:13:15;9.50;1.00
15452;DHT22;7827;53.594;9.938;2023-05-07T02:15:43;9.50;1.00
15452;DHT22;7827;53.594;9.938;2023-05-07T02:18:16;9.50;1.00
15452;DHT22;7827;53.594;9.938;2023-05-07T02:20:45;9.50;1.00
15452;DHT22;7827;53.594;9.938;2023-05-07T02:23:14;9.60;1.00
15452;DHT22;7827;53.594;9.938;2023-05-07T02:25:44;9.60;1.00
15452;DHT22;7827;53.594;9.938;2023-05-07T02:28:13;9.60;1.00
15452;DHT22;7827;53.594;9.938;2023-05-07T02:30:55;9.60;1.00
15452;DHT22;7827;53.594;9.938;2023-05-07T02:33:25;9.60;1.00
15452;DHT22;7827;53.594;9.938;2023-05-07T02:35:53;9.60;1.00
15452;DHT22;7827;53.594;9.938;2023-05-07T02:38:22;9.60;2.50
15452;DHT22;7827;53.594;9.938;2023-05-07T02:40:51;9.60;1.00
15452;DHT22;7827;53.594;9.938;2023-05-07T02:43:20;9.60;1.00
15452;DHT22;7827;53.594;9.938;2023-05-07T02:45:49;9.60;1.00
15452;DHT22;7827;53.594;9.938;2023-05-07T02:48:17;9.60;1.00
15452;DHT22;7827;53.594;9.938;2023-05-07T02:50:45;9.60;1.00
15452;DHT22;7827;53.594;9.938;2023-05-07T02:53:14;9.60;1.00
15452;DHT22;7827;53.594;9.938;2023-05-07T02:55:42;9.60;1.00
15452;DHT22;7827;53.594;9.938;2023-05-07T02:58:13;9.60;1.00
15452;DHT22;7827;53.594;9.938;2023-05-07T03:00:42;9.50;1.00
15452;DHT22;7827;53.594;9.938;2023-05-07T03:03:31;9.50;1.20
15452;DHT22;7827;53.594;9.938;2023-05-07T03:06:00;9.50;1.00
15452;DHT22;7827;53.594;9.938;2023-05-07T03:08:29;9.50;1.00
15452;DHT22;7827;53.594;9.938;2023-05-07T03:10:57;9.50;1.00
15452;DHT22;7827;53.594;9.938;2023-05-07T03:13:27;9.40;1.00
15452;DHT22;7827;53.594;9.938;2023-05-07T03:15:55;9.40;1.00
15452;DHT22;7827;53.594;9.938;2023-05-07T03:18:24;9.40;1.20
15452;DHT22;7827;53.594;9.938;2023-05-07T03:20:52;9.40;1.00
15452;DHT22;7827;53.594;9.938;2023-05-07T03:23:21;9.40;1.00
15452;DHT22;7827;53.594;9.938;2023-05-07T03:25:51;9.30;6.70
15452;DHT22;7827;53.594;9.938;2023-05-07T03:28:19;9.30;3.40
15452;DHT22;7827;53.594;9.938;2023-05-07T03:30:54;9.30;37.00
15452;DHT22;7827;53.594;9.938;2023-05-07T03:33:23;9.30;28.00
15452;DHT22;7827;53.594;9.938;2023-05-07T03:35:51;9.30;44.50
15452;DHT22;7827;53.594;9.938;2023-05-07T03:38:23;9.40;28.60
15452;DHT22;7827;53.594;9.938;2023-05-07T03:40:51;9.40;15.80
15452;DHT22;7827;53.594;9.938;2023-05-07T03:43:20;9.40;18.30
15452;DHT22;7827;53.594;9.938;2023-05-07T03:45:57;9.30;16.30
15452;DHT22;7827;53.594;9.938;2023-05-07T03:48:27;9.30;38.30
15452;DHT22;7827;53.594;9.938;2023-05-07T03:50:58;9.30;15.30
15452;DHT22;7827;53.594;9.938;2023-05-07T03:53:31;9.30;13.90
15452;DHT22;7827;53.594;9.938;2023-05-07T03:56:00;9.40;1.00
15452;DHT22;7827;53.594;9.938;2023-05-07T03:58:32;9.40;1.00
15452;DHT22;7827;53.594;9.938;2023-05-07T04:01:06;9.30;1.00
15452;DHT22;7827;53.594;9.938;2023-05-07T04:03:35;9.30;1.00
15452;DHT22;7827;53.594;9.938;2023-05-07T04:06:04;9.40;1.00
15452;DHT22;7827;53.594;9.938;2023-05-07T04:08:34;9.40;1.00
15452;DHT22;7827;53.594;9.938;2023-05-07T04:11:04;9.50;1.00
15452;DHT22;7827;53.594;9.938;2023-05-07T04:13:34;9.50;1.00
15452;DHT22;7827;53.594;9.938;2023-05-07T04:16:06;9.40;1.00
15452;DHT22;7827;53.594;9.938;2023-05-07T04:18:37;9.40;1.00
15452;DHT22;7827;53.594;9.938;2023-05-07T04:21:05;9.40;1.00
15452;DHT22;7827;53.594;9.938;2023-05-07T04:23:41;9.50;1.00
15452;DHT22;7827;53.594;9.938;2023-05-07T04:26:11;9.50;1.00
15452;DHT22;7827;53.594;9.938;2023-05-07T04:28:42;9.50;1.00
15452;DHT22;7827;53.594;9.938;2023-05-07T04:31:12;9.50;1.00
15452;DHT22;7827;53.594;9.938;2023-05-07T04:33:41;9.50;1.00
15452;DHT22;7827;53.594;9.938;2023-05-07T04:36:12;9.50;1.00
15452;DHT22;7827;53.594;9.938;2023-05-07T04:38:49;9.50;1.00
15452;DHT22;7827;53.594;9.938;2023-05-07T04:41:19;9.50;1.00
15452;DHT22;7827;53.594;9.938;2023-05-07T04:43:48;9.60;1.00
15452;DHT22;7827;53.594;9.938;2023-05-07T04:46:18;9.60;1.00
15452;DHT22;7827;53.594;9.938;2023-05-07T04:48:49;9.60;1.00
15452;DHT22;7827;53.594;9.938;2023-05-07T04:51:17;9.60;1.00
15452;DHT22;7827;53.594;9.938;2023-05-07T04:53:45;9.60;1.00
15452;DHT22;7827;53.594;9.938;2023-05-07T04:56:14;9.60;1.00
15452;DHT22;7827;53.594;9.938;2023-05-07T04:58:44;9.50;1.00
15452;DHT22;7827;53.594;9.938;2023-05-07T05:01:13;9.50;1.00
15452;DHT22;7827;53.594;9.938;2023-05-07T05:03:43;9.50;1.00
15452;DHT22;7827;53.594;9.938;2023-05-07T05:06:12;9.60;1.00
15452;DHT22;7827;53.594;9.938;2023-05-07T05:08:40;9.60;1.00
15452;DHT22;7827;53.594;9.938;2023-05-07T05:11:09;9.60;1.00
15452;DHT22;7827;53.594;9.938;2023-05-07T05:13:38;9.60;1.00
15452;DHT22;7827;53.594;9.938;2023-05-07T05:16:12;9.70;1.00
15452;DHT22;7827;53.594;9.938;2023-05-07T05:18:41;9.70;1.00
15452;DHT22;7827;53.594;9.938;2023-05-07T05:21:13;9.70;1.00
15452;DHT22;7827;53.594;9.938;2023-05-07T05:23:43;9.70;1.00
15452;DHT22;7827;53.594;9.938;2023-05-07T05:26:13;9.70;1.00
15452;DHT22;7827;53.594;9.938;2023-05-07T05:28:41;9.60;1.00
15452;DHT22;7827;53.594;9.938;2023-05-07T05:31:10;9.60;1.00
15452;DHT22;7827;53.594;9.938;2023-05-07T05:33:39;9.60;1.00
15452;DHT22;7827;53.594;9.938;2023-05-07T05:36:10;9.70;1.00
15452;DHT22;7827;53.594;9.938;2023-05-07T05:38:42;9.70;1.00
15452;DHT22;7827;53.594;9.938;2023-05-07T05:41:11;9.70;1.00
15452;DHT22;7827;53.594;9.938;2023-05-07T05:43:39;9.70;1.00
15452;DHT22;7827;53.594;9.938;2023-05-07T05:46:09;9.70;1.00
15452;DHT22;7827;53.594;9.938;2023-05-07T05:48:38;9.70;1.00
15452;DHT22;7827;53.594;9.938;2023-05-07T05:51:07;9.60;1.00
15452;DHT22;7827;53.594;9.938;2023-05-07T05:53:37;9.70;1.00
15452;DHT22;7827;53.594;9.938;2023-05-07T05:56:06;9.70;1.00
15452;DHT22;7827;53.594;9.938;2023-05-07T05:58:36;9.80;1.00
15452;DHT22;7827;53.594;9.938;2023-05-07T06:01:06;9.80;1.00
15452;DHT22;7827;53.594;9.938;2023-05-07T06:03:36;9.80;1.00
15452;DHT22;7827;53.594;9.938;2023-05-07T06:06:10;9.80;1.00
15452;DHT22;7827;53.594;9.938;2023-05-07T06:08:40;9.80;1.00
15452;DHT22;7827;53.594;9.938;2023-05-07T06:11:12;9.80;1.00
15452;DHT22;7827;53.594;9.938;2023-05-07T06:13:44;9.80;1.00
15452;DHT22;7827;53.594;9.938;2023-05-07T06:16:12;9.80;1.00
15452;DHT22;7827;53.594;9.938;2023-05-07T06:18:42;9.80;1.00
15452;DHT22;7827;53.594;9.938;2023-05-07T06:21:13;9.80;99.90
15452;DHT22;7827;53.594;9.938;2023-05-07T06:23:43;9.80;1.00
15452;DHT22;7827;53.594;9.938;2023-05-07T06:26:12;9.80;1.00
15452;DHT22;7827;53.594;9.938;2023-05-07T06:28:43;9.90;99.90
15452;DHT22;7827;53.594;9.938;2023-05-07T06:31:14;9.90;99.90
15452;DHT22;7827;53.594;9.938;2023-05-07T06:33:50;9.90;99.90
15452;DHT22;7827;53.594;9.938;2023-05-07T06:36:19;9.90;99.90
15452;DHT22;7827;53.594;9.938;2023-05-07T06:38:48;10.00;99.90
15452;DHT22;7827;53.594;9.938;2023-05-07T06:41:17;10.00;99.90
15452;DHT22;7827;53.594;9.938;2023-05-07T06:43:45;10.00;99.90
15452;DHT22;7827;53.594;9.938;2023-05-07T06:46:35;10.10;99.90
15452;DHT22;7827;53.594;9.938;2023-05-07T06:49:05;10.10;99.90
15452;DHT22;7827;53.594;9.938;2023-05-07T06:51:33;10.20;1.00
15452;DHT22;7827;53.594;9.938;2023-05-07T06:54:04;10.20;1.00
15452;DHT22;7827;53.594;9.938;2023-05-07T06:56:35;10.20;99.90
15452;DHT22;7827;53.594;9.938;2023-05-07T06:59:05;10.20;99.90
15452;DHT22;7827;53.594;9.938;2023-05-07T07:01:38;10.20;18.30
15452;DHT22;7827;53.594;9.938;2023-05-07T07:04:08;10.30;1.00
15452;DHT22;7827;53.594;9.938;2023-05-07T07:06:38;10.20;1.00
15452;DHT22;7827;53.594;9.938;2023-05-07T07:09:11;10.20;1.00
15452;DHT22;7827;53.594;9.938;2023-05-07T07:11:40;10.30;99.10
15452;DHT22;7827;53.594;9.938;2023-05-07T07:14:09;10.40;99.90
15452;DHT22;7827;53.594;9.938;2023-05-07T07:16:44;10.30;1.00
15452;DHT22;7827;53.594;9.938;2023-05-07T07:19:14;10.30;1.00
15452;DHT22;7827;53.594;9.938;2023-05-07T07:21:44;10.30;1.00
15452;DHT22;7827;53.594;9.938;2023-05-07T07:24:15;10.40;1.00
15452;DHT22;7827;53.594;9.938;2023-05-07T07:26:50;10.30;99.90
15452;DHT22;7827;53.594;9.938;2023-05-07T07:29:20;10.40;99.90
15452;DHT22;7827;53.594;9.938;2023-05-07T07:31:49;10.40;40.20
15452;DHT22;7827;53.594;9.938;2023-05-07T07:34:19;10.50;1.00
15452;DHT22;7827;53.594;9.938;2023-05-07T07:36:48;10.50;2.20
15452;DHT22;7827;53.594;9.938;2023-05-07T07:39:19;10.60;1.00
15452;DHT22;7827;53.594;9.938;2023-05-07T07:41:50;10.60;1.00
15452;DHT22;7827;53.594;9.938;2023-05-07T07:44:20;10.70;99.90
15452;DHT22;7827;53.594;9.938;2023-05-07T07:46:54;10.70;99.90
15452;DHT22;7827;53.594;9.938;2023-05-07T07:49:24;10.70;1.50
15452;DHT22;7827;53.594;9.938;2023-05-07T07:51:53;10.70;1.00
15452;DHT22;7827;53.594;9.938;2023-05-07T07:54:22;10.80;1.00
15452;DHT22;7827;53.594;9.938;2023-05-07T07:56:51;10.70;1.00
15452;DHT22;7827;53.594;9.938;2023-05-07T07:59:19;10.70;1.00
15452;DHT22;7827;53.594;9.938;2023-05-07T08:01:49;10.70;99.90
15452;DHT22;7827;53.594;9.938;2023-05-07T08:04:23;10.80;99.90
15452;DHT22;7827;53.594;9.938;2023-05-07T08:06:53;10.90;1.00
15452;DHT22;7827;53.594;9.938;2023-05-07T08:09:24;10.90;99.90
15452;DHT22;7827;53.594;9.938;2023-05-07T08:11:53;11.00;1.00
15452;DHT22;7827;53.594;9.938;2023-05-07T08:14:22;10.90;99.90
15452;DHT22;7827;53.594;9.938;2023-05-07T08:16:50;10.90;1.00
15452;DHT22;7827;53.594;9.938;2023-05-07T08:19:19;10.90;17.10
15452;DHT22;7827;53.594;9.938;2023-05-07T08:21:48;10.90;1.00
15452;DHT22;7827;53.594;9.938;2023-05-07T08:24:18;10.90;1.00
15452;DHT22;7827;53.594;9.938;2023-05-07T08:26:48;10.90;1.00
15452;DHT22;7827;53.594;9.938;2023-05-07T08:29:17;10.90;18.80
15452;DHT22;7827;53.594;9.938;2023-05-07T08:31:46;10.80;99.90
15452;DHT22;7827;53.594;9.938;2023-05-07T08:34:14;10.90;91.70
15452;DHT22;7827;53.594;9.938;2023-05-07T08:36:45;10.90;99.90
15452;DHT22;7827;53.594;9.938;2023-05-07T08:39:18;10.90;99.90
15452;DHT22;7827;53.594;9.938;2023-05-07T08:41:51;10.90;99.90
15452;DHT22;7827;53.594;9.938;2023-05-07T08:44:26;11.00;61.50
15452;DHT22;7827;53.594;9.938;2023-05-07T08:46:57;11.00;99.90
15452;DHT22;7827;53.594;9.938;2023-05-07T08:49:30;11.10;99.90
15452;DHT22;7827;53.594;9.938;2023-05-07T08:51:59;11.20;1.00
15452;DHT22;7827;53.594;9.938;2023-05-07T08:54:29;11.20;99.90
15452;DHT22;7827;53.594;9.938;2023-05-07T08:57:01;11.20;1.00
15452;DHT22;7827;53.594;9.938;2023-05-07T08:59:32;11.20;99.90
15452;DHT22;7827;53.594;9.938;2023-05-07T09:02:01;11.20;99.90
15452;DHT22;7827;53.594;9.938;2023-05-07T09:04:29;11.30;99.90
15452;DHT22;7827;53.594;9.938;2023-05-07T09:06:59;11.30;99.90
15452;DHT22;7827;53.594;9.938;2023-05-07T09:09:35;11.30;99.90
15452;DHT22;7827;53.594;9.938;2023-05-07T09:12:06;11.30;99.90
15452;DHT22;7827;53.594;9.938;2023-05-07T09:14:35;11.40;1.00
15452;DHT22;7827;53.594;9.938;2023-05-07T09:17:04;11.30;1.00
15452;DHT22;7827;53.594;9.938;2023-05-07T09:19:32;11.40;99.90
15452;DHT22;7827;53.594;9.938;2023-05-07T09:22:05;11.40;1.00
15452;DHT22;7827;53.594;9.938;2023-05-07T09:24:47;11.60;1.00
15452;DHT22;7827;53.594;9.938;2023-05-07T09:27:20;11.70;99.90
15452;DHT22;7827;53.594;9.938;2023-05-07T09:29:49;11.90;1.00
15452;DHT22;7827;53.594;9.938;2023-05-07T09:32:18;12.00;1.00
15452;DHT22;7827;53.594;9.938;2023-05-07T09:34:46;12.10;1.00
15452;DHT22;7827;53.594;9.938;2023-05-07T09:37:18;12.10;1.00
15452;DHT22;7827;53.594;9.938;2023-05-07T09:39:48;12.30;99.90
15452;DHT22;7827;53.594;9.938;2023-05-07T09:42:24;12.30;1.00
15452;DHT22;7827;53.594;9.938;2023-05-07T09:44:56;12.40;1.00
15452;DHT22;7827;53.594;9.938;2023-05-07T09:47:32;12.50;99.50
15452;DHT22;7827;53.594;9.938;2023-05-07T09:50:06;12.60;99.90
15452;DHT22;7827;53.594;9.938;2023-05-07T09:52:39;12.60;99.90
15452;DHT22;7827;53.594;9.938;2023-05-07T09:55:10;12.60;1.00
15452;DHT22;7827;53.594;9.938;2023-05-07T09:57:42;12.50;99.90
15452;DHT22;7827;53.594;9.938;2023-05-07T10:00:12;12.50;1.00
15452;DHT22;7827;53.594;9.938;2023-05-07T10:02:49;12.50;1.00
15452;DHT22;7827;53.594;9.938;2023-05-07T10:05:32;12.50;99.90
15452;DHT22;7827;53.594;9.938;2023-05-07T10:08:01;12.50;99.90
15452;DHT22;7827;53.594;9.938;2023-05-07T10:10:35;12.50;1.00
15452;DHT22;7827;53.594;9.938;2023-05-07T10:13:08;12.50;1.00
15452;DHT22;7827;53.594;9.938;2023-05-07T10:15:42;12.60;99.80
15452;DHT22;7827;53.594;9.938;2023-05-07T10:18:12;12.70;1.00
15452;DHT22;7827;53.594;9.938;2023-05-07T10:20:45;12.70;1.00
15452;DHT22;7827;53.594;9.938;2023-05-07T10:23:19;12.50;99.90
15452;DHT22;7827;53.594;9.938;2023-05-07T10:25:55;12.40;99.90
15452;DHT22;7827;53.594;9.938;2023-05-07T10:28:35;12.30;99.90
15452;DHT22;7827;53.594;9.938;2023-05-07T10:31:20;12.20;99.90
15452;DHT22;7827;53.594;9.938;2023-05-07T10:34:03;12.00;1.00
15452;DHT22;7827;53.594;9.938;2023-05-07T10:36:37;12.00;89.30
15452;DHT22;7827;53.594;9.938;2023-05-07T10:39:07;12.00;91.20
15452;DHT22;7827;53.594;9.938;2023-05-07T10:41:36;12.00;99.90
15452;DHT22;7827;53.594;9.938;2023-05-07T10:44:07;12.10;1.00
15452;DHT22;7827;53.594;9.938;2023-05-07T10:46:37;12.10;1.00
15452;DHT22;7827;53.594;9.938;2023-05-07T10:49:14;12.00;99.90
15452;DHT22;7827;53.594;9.938;2023-05-07T10:52:13;12.00;1.00
15452;DHT22;7827;53.594;9.938;2023-05-07T10:55:20;11.90;1.00
15452;DHT22;7827;53.594;9.938;2023-05-07T10:58:26;12.00;1.00
15452;DHT22;7827;53.594;9.938;2023-05-07T11:01:52;12.10;99.90
15452;DHT22;7827;53.594;9.938;2023-05-07T11:04:35;12.10;99.90
15452;DHT22;7827;53.594;9.938;2023-05-07T11:07:27;12.20;1.00
15452;DHT22;7827;53.594;9.938;2023-05-07T11:10:04;12.20;99.90
15452;DHT22;7827;53.594;9.938;2023-05-07T11:13:09;12.30;1.00
15452;DHT22;7827;53.594;9.938;2023-05-07T11:15:47;12.40;99.90
15452;DHT22;7827;53.594;9.938;2023-05-07T11:18:47;12.60;99.90
15452;DHT22;7827;53.594;9.938;2023-05-07T11:21:35;12.70;1.00
15452;DHT22;7827;53.594;9.938;2023-05-07T11:24:39;12.70;1.00
15452;DHT22;7827;53.594;9.938;2023-05-07T11:27:08;12.80;1.00
15452;DHT22;7827;53.594;9.938;2023-05-07T11:29:37;12.80;1.00
15452;DHT22;7827;53.594;9.938;2023-05-07T11:32:09;12.90;1.00
15452;DHT22;7827;53.594;9.938;2023-05-07T11:34:51;13.00;1.00
15452;DHT22;7827;53.594;9.938;2023-05-07T11:37:22;13.10;99.90
15452;DHT22;7827;53.594;9.938;2023-05-07T11:40:03;13.20;99.90
15452;DHT22;7827;53.594;9.938;2023-05-07T11:42:34;13.30;99.90
15452;DHT22;7827;53.594;9.938;2023-05-07T11:45:05;13.30;99.90
15452;DHT22;7827;53.594;9.938;2023-05-07T11:47:35;13.30;99.90
15452;DHT22;7827;53.594;9.938;2023-05-07T11:50:08;13.30;16.50
15452;DHT22;7827;53.594;9.938;2023-05-07T11:52:37;13.40;1.00
15452;DHT22;7827;53.594;9.938;2023-05-07T11:55:07;13.50;1.00
15452;DHT22;7827;53.594;9.938;2023-05-07T11:57:36;13.50;1.00
15452;DHT22;7827;53.594;9.938;2023-05-07T12:00:06;13.60;1.00
15452;DHT22;7827;53.594;9.938;2023-05-07T12:02:40;13.60;1.00
15452;DHT22;7827;53.594;9.938;2023-05-07T12:05:11;13.80;1.00
15452;DHT22;7827;53.594;9.938;2023-05-07T12:07:40;13.80;1.00
15452;DHT22;7827;53.594;9.938;2023-05-07T12:10:11;13.90;1.00
15452;DHT22;7827;53.594;9.938;2023-05-07T12:12:40;13.90;1.00
15452;DHT22;7827;53.594;9.938;2023-05-07T12:15:10;13.90;1.00
15452;DHT22;7827;53.594;9.938;2023-05-07T12:17:38;13.90;1.00
15452;DHT22;7827;53.594;9.938;2023-05-07T12:20:08;13.90;99.90
15452;DHT22;7827;53.594;9.938;2023-05-07T12:22:39;13.90;1.00
15452;DHT22;7827;53.594;9.938;2023-05-07T12:25:08;13.90;1.00
15452;DHT22;7827;53.594;9.938;2023-05-07T12:27:37;14.00;1.00
15452;DHT22;7827;53.594;9.938;2023-05-07T12:30:10;14.00;99.90
15452;DHT22;7827;53.594;9.938;2023-05-07T12:32:39;14.00;99.90
15452;DHT22;7827;53.594;9.938;2023-05-07T12:35:08;14.00;99.90
15452;DHT22;7827;53.594;9.938;2023-05-07T12:37:38;14.00;99.90
15452;DHT22;7827;53.594;9.938;2023-05-07T12:40:09;14.00;99.90
15452;DHT22;7827;53.594;9.938;2023-05-07T12:42:40;14.10;99.90
15452;DHT22;7827;53.594;9.938;2023-05-07T12:45:09;14.10;99.90
15452;DHT22;7827;53.594;9.938;2023-05-07T12:47:39;14.10;99.90
15452;DHT22;7827;53.594;9.938;2023-05-07T12:50:11;14.10;99.90
15452;DHT22;7827;53.594;9.938;2023-05-07T12:52:43;14.10;99.90
15452;DHT22;7827;53.594;9.938;2023-05-07T12:55:14;14.10;99.90
15452;DHT22;7827;53.594;9.938;2023-05-07T12:57:47;14.20;99.90
15452;DHT22;7827;53.594;9.938;2023-05-07T13:00:17;14.30;99.90
15452;DHT22;7827;53.594;9.938;2023-05-07T13:02:46;14.30;99.90
15452;DHT22;7827;53.594;9.938;2023-05-07T13:05:15;14.30;99.90
15452;DHT22;7827;53.594;9.938;2023-05-07T13:07:53;14.40;99.90
15452;DHT22;7827;53.594;9.938;2023-05-07T13:10:23;14.40;99.90
15452;DHT22;7827;53.594;9.938;2023-05-07T13:12:51;14.50;99.90
15452;DHT22;7827;53.594;9.938;2023-05-07T13:15:20;14.50;99.90
15452;DHT22;7827;53.594;9.938;2023-05-07T13:17:50;14.60;99.90
15452;DHT22;7827;53.594;9.938;2023-05-07T13:20:18;14.60;99.90
15452;DHT22;7827;53.594;9.938;2023-05-07T13:22:47;14.70;99.90
15452;DHT22;7827;53.594;9.938;2023-05-07T13:25:16;14.70;38.90
15452;DHT22;7827;53.594;9.938;2023-05-07T13:27:45;14.80;99.90
15452;DHT22;7827;53.594;9.938;2023-05-07T13:30:22;14.90;25.80
15452;DHT22;7827;53.594;9.938;2023-05-07T13:32:51;15.00;1.00
15452;DHT22;7827;53.594;9.938;2023-05-07T13:35:23;15.00;1.00
15452;DHT22;7827;53.594;9.938;2023-05-07T13:37:51;15.00;1.00
15452;DHT22;7827;53.594;9.938;2023-05-07T13:40:22;15.10;1.00
15452;DHT22;7827;53.594;9.938;2023-05-07T13:42:51;15.10;1.00
15452;DHT22;7827;53.594;9.938;2023-05-07T13:45:19;15.20;1.00
15452;DHT22;7827;53.594;9.938;2023-05-07T13:47:48;15.20;1.00
15452;DHT22;7827;53.594;9.938;2023-05-07T13:50:17;15.30;1.00
15452;DHT22;7827;53.594;9.938;2023-05-07T13:52:45;15.50;1.00
15452;DHT22;7827;53.594;9.938;2023-05-07T13:55:17;15.50;1.00
15452;DHT22;7827;53.594;9.938;2023-05-07T13:57:47;15.60;1.00
15452;DHT22;7827;53.594;9.938;2023-05-07T14:00:21;15.80;99.90
15452;DHT22;7827;53.594;9.938;2023-05-07T14:02:50;15.80;75.80
15452;DHT22;7827;53.594;9.938;2023-05-07T14:05:19;15.80;23.50
15452;DHT22;7827;53.594;9.938;2023-05-07T14:07:47;15.80;1.00
15452;DHT22;7827;53.594;9.938;2023-05-07T14:10:18;15.70;1.00
15452;DHT22;7827;53.594;9.938;2023-05-07T14:12:48;15.70;55.50
15452;DHT22;7827;53.594;9.938;2023-05-07T14:15:17;15.70;99.90
15452;DHT22;7827;53.594;9.938;2023-05-07T14:17:45;15.70;1.00
15452;DHT22;7827;53.594;9.938;2023-05-07T14:20:14;15.80;36.90
15452;DHT22;7827;53.594;9.938;2023-05-07T14:22:42;15.90;58.90
15452;DHT22;7827;53.594;9.938;2023-05-07T14:25:10;15.90;1.00
15452;DHT22;7827;53.594;9.938;2023-05-07T14:27:40;16.00;1.00
15452;DHT22;7827;53.594;9.938;2023-05-07T14:30:10;16.00;1.00
15452;DHT22;7827;53.594;9.938;2023-05-07T14:32:39;16.10;1.00
15452;DHT22;7827;53.594;9.938;2023-05-07T14:35:08;16.10;1.00
15452;DHT22;7827;53.594;9.938;2023-05-07T14:37:37;16.20;1.00
15452;DHT22;7827;53.594;9.938;2023-05-07T14:40:07;16.30;1.00
15452;DHT22;7827;53.594;9.938;2023-05-07T14:42:37;16.50;1.00
15452;DHT22;7827;53.594;9.938;2023-05-07T14:45:06;16.60;1.00
15452;DHT22;7827;53.594;9.938;2023-05-07T14:47:37;16.70;1.00
15452;DHT22;7827;53.594;9.938;2023-05-07T14:50:06;16.80;99.90
15452;DHT22;7827;53.594;9.938;2023-05-07T14:52:34;16.90;1.00
15452;DHT22;7827;53.594;9.938;2023-05-07T14:55:03;17.00;99.90
15452;DHT22;7827;53.594;9.938;2023-05-07T14:57:32;17.10;99.90
15452;DHT22;7827;53.594;9.938;2023-05-07T15:00:01;17.20;99.90
15452;DHT22;7827;53.594;9.938;2023-05-07T15:02:31;17.30;99.90
15452;DHT22;7827;53.594;9.938;2023-05-07T15:05:01;17.20;97.80
15452;DHT22;7827;53.594;9.938;2023-05-07T15:07:29;17.10;99.90
15452;DHT22;7827;53.594;9.938;2023-05-07T15:09:59;17.00;99.90
15452;DHT22;7827;53.594;9.938;2023-05-07T15:12:27;16.90;99.90
15452;DHT22;7827;53.594;9.938;2023-05-07T15:14:56;16.70;99.90
15452;DHT22;7827;53.594;9.938;2023-05-07T15:17:24;16.60;99.90
15452;DHT22;7827;53.594;9.938;2023-05-07T15:19:53;16.50;99.90
15452;DHT22;7827;53.594;9.938;2023-05-07T15:22:23;16.40;99.90
15452;DHT22;7827;53.594;9.938;2023-05-07T15:24:51;16.40;1.00
15452;DHT22;7827;53.594;9.938;2023-05-07T15:27:21;16.30;1.00
15452;DHT22;7827;53.594;9.938;2023-05-07T15:29:50;16.30;99.90
15452;DHT22;7827;53.594;9.938;2023-05-07T15:32:19;16.20;99.90
15452;DHT22;7827;53.594;9.938;2023-05-07T15:34:47;16.20;1.00
15452;DHT22;7827;53.594;9.938;2023-05-07T15:37:16;16.20;1.00
15452;DHT22;7827;53.594;9.938;2023-05-07T15:39:45;16.20;1.00
15452;DHT22;7827;53.594;9.938;2023-05-07T15:42:14;16.30;1.00
15452;DHT22;7827;53.594;9.938;2023-05-07T15:44:42;16.30;1.00
15452;DHT22;7827;53.594;9.938;2023-05-07T15:47:10;16.20;1.00
15452;DHT22;7827;53.594;9.938;2023-05-07T15:49:40;16.20;1.00
15452;DHT22;7827;53.594;9.938;2023-05-07T15:52:09;16.20;1.00
15452;DHT22;7827;53.594;9.938;2023-05-07T15:54:40;16.10;99.90
15452;DHT22;7827;53.594;9.938;2023-05-07T15:57:10;16.00;1.00
15452;DHT22;7827;53.594;9.938;2023-05-07T15:59:38;16.00;1.00
15452;DHT22;7827;53.594;9.938;2023-05-07T16:02:06;16.10;1.00
15452;DHT22;7827;53.594;9.938;2023-05-07T16:04:36;16.10;1.00
15452;DHT22;7827;53.594;9.938;2023-05-07T16:07:04;16.10;1.00
15452;DHT22;7827;53.594;9.938;2023-05-07T16:09:33;16.10;1.00
15452;DHT22;7827;53.594;9.938;2023-05-07T16:12:01;16.10;1.00
15452;DHT22;7827;53.594;9.938;2023-05-07T16:14:32;16.10;1.00
15452;DHT22;7827;53.594;9.938;2023-05-07T16:17:00;16.10;1.00
15452;DHT22;7827;53.594;9.938;2023-05-07T16:19:29;16.10;1.00
15452;DHT22;7827;53.594;9.938;2023-05-07T16:21:57;16.00;1.00
15452;DHT22;7827;53.594;9.938;2023-05-07T16:24:25;16.10;1.00
15452;DHT22;7827;53.594;9.938;2023-05-07T16:26:54;16.10;99.90